Reading Regional Carl A Spaatz Field Reading US
ICAO: KRDG
IATA: RDG
Category: Medium
Scheduled Services: Yes

Elevation: 344 ft
TransAlt. 18000 ft.

Airport Communications:
APP/DEP:125.15
ATIS:127.1
CTAF:119.9
GND:121.9
TWR:119.9
UNICOM:122.95

KRDG Zoom In..

Runways:

(A) RW 13 length 6350 ft width 150 ft
ILS 110.55 / hdg 133

(B) RW 18 length 5151 ft width 150 ft
---- / hdg 184

(C) RW 31 length 6350 ft width 150 ft
---- / hdg 313

(D) RW 36 length 5151 ft width 150 ft
ILS 109.50 / hdg 4

Location; KRDG
Day. 04 / Time. 04.54 Zulu
* Altimeter: 30.11
* Temperature: 07° c. 44.6°f.
* Wind from: 210° Speed 03 kn.
Dewpoint: -03° c.
Visibility: 10 Statute Miles.
Clouds: Scattered 12000 ft.

KRDG 040454Z AUTO 21003KT 10SM SCT120 07/M03 A3011 RMK AO2 SLP204 T00721028 401001028

Going to: --> -->


Wind From 210°
Speed 03 kn.

 
 
jpsmedia worldairports.se 2020   terms of use